sensor_id;sensor_type;location;lat;lon;timestamp;temperature;humidity
23597;DHT22;40226;50.874;4.394;2024-01-27T00:00:05;5.30;1.00
23597;DHT22;40226;50.874;4.394;2024-01-27T00:02:31;5.20;1.00
23597;DHT22;40226;50.874;4.394;2024-01-27T00:04:56;5.20;1.00
23597;DHT22;40226;50.874;4.394;2024-01-27T00:07:22;5.20;1.00
23597;DHT22;40226;50.874;4.394;2024-01-27T00:09:48;5.10;1.00
23597;DHT22;40226;50.874;4.394;2024-01-27T00:12:14;5.20;1.00
23597;DHT22;40226;50.874;4.394;2024-01-27T00:14:40;5.20;1.00
23597;DHT22;40226;50.874;4.394;2024-01-27T00:17:06;5.20;1.00
23597;DHT22;40226;50.874;4.394;2024-01-27T00:19:31;5.10;1.00
23597;DHT22;40226;50.874;4.394;2024-01-27T00:21:57;5.10;1.00
23597;DHT22;40226;50.874;4.394;2024-01-27T00:24:24;5.10;1.00
23597;DHT22;40226;50.874;4.394;2024-01-27T00:26:49;5.10;1.00
23597;DHT22;40226;50.874;4.394;2024-01-27T00:29:15;5.00;1.00
23597;DHT22;40226;50.874;4.394;2024-01-27T00:31:40;5.00;1.00
23597;DHT22;40226;50.874;4.394;2024-01-27T00:34:06;5.00;1.00
23597;DHT22;40226;50.874;4.394;2024-01-27T00:36:31;5.00;1.00
23597;DHT22;40226;50.874;4.394;2024-01-27T00:38:57;5.10;1.00
23597;DHT22;40226;50.874;4.394;2024-01-27T00:41:23;5.10;1.00
23597;DHT22;40226;50.874;4.394;2024-01-27T00:43:48;5.00;1.00
23597;DHT22;40226;50.874;4.394;2024-01-27T00:46:14;4.90;5.10
23597;DHT22;40226;50.874;4.394;2024-01-27T00:48:40;4.90;18.40
23597;DHT22;40226;50.874;4.394;2024-01-27T00:51:05;4.80;29.10
23597;DHT22;40226;50.874;4.394;2024-01-27T00:53:31;4.80;35.90
23597;DHT22;40226;50.874;4.394;2024-01-27T00:55:56;4.80;48.70
23597;DHT22;40226;50.874;4.394;2024-01-27T00:58:22;4.80;53.30
23597;DHT22;40226;50.874;4.394;2024-01-27T01:00:47;4.90;53.10
23597;DHT22;40226;50.874;4.394;2024-01-27T01:03:13;4.90;53.40
23597;DHT22;40226;50.874;4.394;2024-01-27T01:05:38;4.80;62.40
23597;DHT22;40226;50.874;4.394;2024-01-27T01:08:04;4.80;79.40
23597;DHT22;40226;50.874;4.394;2024-01-27T01:10:31;4.70;81.20
23597;DHT22;40226;50.874;4.394;2024-01-27T01:12:57;4.70;89.00
23597;DHT22;40226;50.874;4.394;2024-01-27T01:15:23;4.70;90.40
23597;DHT22;40226;50.874;4.394;2024-01-27T01:17:48;4.70;95.90
23597;DHT22;40226;50.874;4.394;2024-01-27T01:20:14;4.70;91.90
23597;DHT22;40226;50.874;4.394;2024-01-27T01:22:40;4.70;97.20
23597;DHT22;40226;50.874;4.394;2024-01-27T01:25:06;4.70;99.00
23597;DHT22;40226;50.874;4.394;2024-01-27T01:27:32;4.60;99.90
23597;DHT22;40226;50.874;4.394;2024-01-27T01:29:57;4.70;99.90
23597;DHT22;40226;50.874;4.394;2024-01-27T01:32:23;4.60;99.90
23597;DHT22;40226;50.874;4.394;2024-01-27T01:34:49;4.60;99.90
23597;DHT22;40226;50.874;4.394;2024-01-27T01:37:14;4.50;99.90
23597;DHT22;40226;50.874;4.394;2024-01-27T01:39:40;4.50;99.90
23597;DHT22;40226;50.874;4.394;2024-01-27T01:42:06;4.60;99.90
23597;DHT22;40226;50.874;4.394;2024-01-27T01:44:31;4.60;99.90
23597;DHT22;40226;50.874;4.394;2024-01-27T01:46:58;4.60;99.90
23597;DHT22;40226;50.874;4.394;2024-01-27T01:49:24;4.60;99.90
23597;DHT22;40226;50.874;4.394;2024-01-27T01:51:49;4.50;99.90
23597;DHT22;40226;50.874;4.394;2024-01-27T01:54:15;4.40;99.90
23597;DHT22;40226;50.874;4.394;2024-01-27T01:56:42;4.50;99.90
23597;DHT22;40226;50.874;4.394;2024-01-27T01:59:08;4.50;99.90
23597;DHT22;40226;50.874;4.394;2024-01-27T02:01:33;4.50;99.90
23597;DHT22;40226;50.874;4.394;2024-01-27T02:03:59;4.40;99.90
23597;DHT22;40226;50.874;4.394;2024-01-27T02:06:25;4.50;99.90
23597;DHT22;40226;50.874;4.394;2024-01-27T02:08:50;4.50;99.90
23597;DHT22;40226;50.874;4.394;2024-01-27T02:11:16;4.50;99.90
23597;DHT22;40226;50.874;4.394;2024-01-27T02:13:42;4.50;99.90
23597;DHT22;40226;50.874;4.394;2024-01-27T02:16:08;4.50;99.90
23597;DHT22;40226;50.874;4.394;2024-01-27T02:18:34;4.50;99.90
23597;DHT22;40226;50.874;4.394;2024-01-27T02:20:59;4.60;99.90
23597;DHT22;40226;50.874;4.394;2024-01-27T02:23:25;4.50;99.90
23597;DHT22;40226;50.874;4.394;2024-01-27T02:25:50;4.50;99.90
23597;DHT22;40226;50.874;4.394;2024-01-27T02:28:16;4.40;99.90
23597;DHT22;40226;50.874;4.394;2024-01-27T02:30:42;4.30;99.90
23597;DHT22;40226;50.874;4.394;2024-01-27T02:33:08;4.30;99.90
23597;DHT22;40226;50.874;4.394;2024-01-27T02:35:33;4.40;99.90
23597;DHT22;40226;50.874;4.394;2024-01-27T02:37:59;4.30;99.90
23597;DHT22;40226;50.874;4.394;2024-01-27T02:40:24;4.30;99.90
23597;DHT22;40226;50.874;4.394;2024-01-27T02:42:50;4.40;99.90
23597;DHT22;40226;50.874;4.394;2024-01-27T02:45:16;4.40;99.90
23597;DHT22;40226;50.874;4.394;2024-01-27T02:47:42;4.40;99.90
23597;DHT22;40226;50.874;4.394;2024-01-27T02:50:08;4.40;99.90
23597;DHT22;40226;50.874;4.394;2024-01-27T02:52:34;4.40;99.90
23597;DHT22;40226;50.874;4.394;2024-01-27T02:54:59;4.40;99.90
23597;DHT22;40226;50.874;4.394;2024-01-27T02:57:25;4.40;99.90
23597;DHT22;40226;50.874;4.394;2024-01-27T02:59:50;4.40;99.90
23597;DHT22;40226;50.874;4.394;2024-01-27T03:02:16;4.40;99.90
23597;DHT22;40226;50.874;4.394;2024-01-27T03:04:42;4.50;99.90
23597;DHT22;40226;50.874;4.394;2024-01-27T03:07:07;4.50;99.90
23597;DHT22;40226;50.874;4.394;2024-01-27T03:09:33;4.40;99.90
23597;DHT22;40226;50.874;4.394;2024-01-27T03:11:58;4.40;99.90
23597;DHT22;40226;50.874;4.394;2024-01-27T03:14:24;4.40;99.90
23597;DHT22;40226;50.874;4.394;2024-01-27T03:16:50;4.40;99.90
23597;DHT22;40226;50.874;4.394;2024-01-27T03:19:15;4.30;99.90
23597;DHT22;40226;50.874;4.394;2024-01-27T03:21:41;4.30;99.90
23597;DHT22;40226;50.874;4.394;2024-01-27T03:24:07;4.30;99.90
23597;DHT22;40226;50.874;4.394;2024-01-27T03:26:33;4.30;99.90
23597;DHT22;40226;50.874;4.394;2024-01-27T03:28:58;4.30;99.90
23597;DHT22;40226;50.874;4.394;2024-01-27T03:31:33;4.40;99.90
23597;DHT22;40226;50.874;4.394;2024-01-27T03:34:02;4.30;99.90
23597;DHT22;40226;50.874;4.394;2024-01-27T03:36:28;4.30;99.90
23597;DHT22;40226;50.874;4.394;2024-01-27T03:38:56;4.30;99.90
23597;DHT22;40226;50.874;4.394;2024-01-27T03:41:22;4.30;99.90
23597;DHT22;40226;50.874;4.394;2024-01-27T03:43:47;4.30;99.90
23597;DHT22;40226;50.874;4.394;2024-01-27T03:46:13;4.30;99.90
23597;DHT22;40226;50.874;4.394;2024-01-27T03:48:39;4.40;99.90
23597;DHT22;40226;50.874;4.394;2024-01-27T03:51:04;4.30;99.90
23597;DHT22;40226;50.874;4.394;2024-01-27T03:53:31;4.30;99.90
23597;DHT22;40226;50.874;4.394;2024-01-27T03:55:57;4.30;99.90
23597;DHT22;40226;50.874;4.394;2024-01-27T03:58:30;4.20;99.90
23597;DHT22;40226;50.874;4.394;2024-01-27T04:00:56;4.20;99.90
23597;DHT22;40226;50.874;4.394;2024-01-27T04:03:22;4.20;99.90
23597;DHT22;40226;50.874;4.394;2024-01-27T04:05:48;4.20;99.90
23597;DHT22;40226;50.874;4.394;2024-01-27T04:08:13;4.30;99.90
23597;DHT22;40226;50.874;4.394;2024-01-27T04:10:39;4.20;99.90
23597;DHT22;40226;50.874;4.394;2024-01-27T04:13:05;4.10;99.90
23597;DHT22;40226;50.874;4.394;2024-01-27T04:15:33;4.20;99.90
23597;DHT22;40226;50.874;4.394;2024-01-27T04:18:04;4.10;99.90
23597;DHT22;40226;50.874;4.394;2024-01-27T04:20:29;4.10;99.90
23597;DHT22;40226;50.874;4.394;2024-01-27T04:22:55;4.10;99.90
23597;DHT22;40226;50.874;4.394;2024-01-27T04:25:20;4.10;99.90
23597;DHT22;40226;50.874;4.394;2024-01-27T04:27:46;4.10;99.90
23597;DHT22;40226;50.874;4.394;2024-01-27T04:30:12;4.10;99.90
23597;DHT22;40226;50.874;4.394;2024-01-27T04:32:38;4.10;99.90
23597;DHT22;40226;50.874;4.394;2024-01-27T04:35:04;4.10;99.90
23597;DHT22;40226;50.874;4.394;2024-01-27T04:37:30;4.00;99.90
23597;DHT22;40226;50.874;4.394;2024-01-27T04:39:55;4.10;99.90
23597;DHT22;40226;50.874;4.394;2024-01-27T04:42:21;4.10;99.90
23597;DHT22;40226;50.874;4.394;2024-01-27T04:44:46;4.00;99.90
23597;DHT22;40226;50.874;4.394;2024-01-27T04:47:12;4.10;99.90
23597;DHT22;40226;50.874;4.394;2024-01-27T04:49:38;4.10;99.90
23597;DHT22;40226;50.874;4.394;2024-01-27T04:52:03;4.10;99.90
23597;DHT22;40226;50.874;4.394;2024-01-27T04:54:29;4.10;99.90
23597;DHT22;40226;50.874;4.394;2024-01-27T04:56:54;4.00;99.90
23597;DHT22;40226;50.874;4.394;2024-01-27T04:59:20;4.00;99.90
23597;DHT22;40226;50.874;4.394;2024-01-27T05:01:46;4.00;99.90
23597;DHT22;40226;50.874;4.394;2024-01-27T05:04:12;4.00;99.90
23597;DHT22;40226;50.874;4.394;2024-01-27T05:06:38;4.00;99.90
23597;DHT22;40226;50.874;4.394;2024-01-27T05:09:04;4.00;99.90
23597;DHT22;40226;50.874;4.394;2024-01-27T05:11:32;4.00;99.90
23597;DHT22;40226;50.874;4.394;2024-01-27T05:13:58;4.00;99.90
23597;DHT22;40226;50.874;4.394;2024-01-27T05:16:24;4.00;99.90
23597;DHT22;40226;50.874;4.394;2024-01-27T05:18:49;4.00;99.90
23597;DHT22;40226;50.874;4.394;2024-01-27T05:21:15;4.00;99.90
23597;DHT22;40226;50.874;4.394;2024-01-27T05:23:41;4.00;99.90
23597;DHT22;40226;50.874;4.394;2024-01-27T05:26:06;4.00;99.90
23597;DHT22;40226;50.874;4.394;2024-01-27T05:28:32;4.00;99.90
23597;DHT22;40226;50.874;4.394;2024-01-27T05:30:58;3.90;99.90
23597;DHT22;40226;50.874;4.394;2024-01-27T05:33:24;4.00;99.90
23597;DHT22;40226;50.874;4.394;2024-01-27T05:35:50;3.90;99.90
23597;DHT22;40226;50.874;4.394;2024-01-27T05:38:15;4.00;99.90
23597;DHT22;40226;50.874;4.394;2024-01-27T05:40:41;4.00;99.90
23597;DHT22;40226;50.874;4.394;2024-01-27T05:43:07;3.90;99.90
23597;DHT22;40226;50.874;4.394;2024-01-27T05:45:33;3.90;99.90
23597;DHT22;40226;50.874;4.394;2024-01-27T05:47:58;3.90;99.90
23597;DHT22;40226;50.874;4.394;2024-01-27T05:50:24;3.90;99.90
23597;DHT22;40226;50.874;4.394;2024-01-27T05:52:49;3.90;99.90
23597;DHT22;40226;50.874;4.394;2024-01-27T05:55:16;4.00;99.90
23597;DHT22;40226;50.874;4.394;2024-01-27T05:57:42;3.90;99.90
23597;DHT22;40226;50.874;4.394;2024-01-27T06:00:08;3.90;99.90
23597;DHT22;40226;50.874;4.394;2024-01-27T06:02:35;3.90;99.90
23597;DHT22;40226;50.874;4.394;2024-01-27T06:05:02;3.90;99.90
23597;DHT22;40226;50.874;4.394;2024-01-27T06:07:28;4.00;99.90
23597;DHT22;40226;50.874;4.394;2024-01-27T06:09:53;3.90;99.90
23597;DHT22;40226;50.874;4.394;2024-01-27T06:12:20;3.90;99.90
23597;DHT22;40226;50.874;4.394;2024-01-27T06:14:45;3.90;99.90
23597;DHT22;40226;50.874;4.394;2024-01-27T06:17:13;3.90;99.90
23597;DHT22;40226;50.874;4.394;2024-01-27T06:19:40;3.80;99.90
23597;DHT22;40226;50.874;4.394;2024-01-27T06:22:06;3.80;99.90
23597;DHT22;40226;50.874;4.394;2024-01-27T06:24:31;3.90;99.90
23597;DHT22;40226;50.874;4.394;2024-01-27T06:26:57;3.90;99.90
23597;DHT22;40226;50.874;4.394;2024-01-27T06:29:23;4.00;99.90
23597;DHT22;40226;50.874;4.394;2024-01-27T06:31:48;4.50;99.90
23597;DHT22;40226;50.874;4.394;2024-01-27T06:34:14;4.50;99.90
23597;DHT22;40226;50.874;4.394;2024-01-27T06:36:40;4.30;99.90
23597;DHT22;40226;50.874;4.394;2024-01-27T06:39:06;4.20;99.90
23597;DHT22;40226;50.874;4.394;2024-01-27T06:41:33;4.10;99.90
23597;DHT22;40226;50.874;4.394;2024-01-27T06:43:58;4.20;99.90
23597;DHT22;40226;50.874;4.394;2024-01-27T06:46:24;4.10;99.90
23597;DHT22;40226;50.874;4.394;2024-01-27T06:48:50;4.00;99.90
23597;DHT22;40226;50.874;4.394;2024-01-27T06:51:16;3.90;99.90
23597;DHT22;40226;50.874;4.394;2024-01-27T06:53:41;3.90;99.90
23597;DHT22;40226;50.874;4.394;2024-01-27T06:56:07;4.00;99.90
23597;DHT22;40226;50.874;4.394;2024-01-27T06:58:33;4.00;99.90
23597;DHT22;40226;50.874;4.394;2024-01-27T07:00:58;3.90;99.90
23597;DHT22;40226;50.874;4.394;2024-01-27T07:03:24;3.90;99.90
23597;DHT22;40226;50.874;4.394;2024-01-27T07:05:49;3.90;99.90
23597;DHT22;40226;50.874;4.394;2024-01-27T07:08:15;3.90;99.90
23597;DHT22;40226;50.874;4.394;2024-01-27T07:10:41;4.00;99.90
23597;DHT22;40226;50.874;4.394;2024-01-27T07:13:07;4.00;99.90
23597;DHT22;40226;50.874;4.394;2024-01-27T07:15:33;3.90;99.90
23597;DHT22;40226;50.874;4.394;2024-01-27T07:17:58;4.00;99.90
23597;DHT22;40226;50.874;4.394;2024-01-27T07:20:24;4.00;99.90
23597;DHT22;40226;50.874;4.394;2024-01-27T07:22:50;4.00;99.90
23597;DHT22;40226;50.874;4.394;2024-01-27T07:25:15;4.00;99.90
23597;DHT22;40226;50.874;4.394;2024-01-27T07:27:41;3.90;99.90
23597;DHT22;40226;50.874;4.394;2024-01-27T07:30:07;3.90;99.90
23597;DHT22;40226;50.874;4.394;2024-01-27T07:32:34;4.00;99.90
23597;DHT22;40226;50.874;4.394;2024-01-27T07:35:02;3.90;99.90
23597;DHT22;40226;50.874;4.394;2024-01-27T07:37:28;4.00;99.90
23597;DHT22;40226;50.874;4.394;2024-01-27T07:39:53;4.00;99.90
23597;DHT22;40226;50.874;4.394;2024-01-27T07:42:19;3.90;99.90
23597;DHT22;40226;50.874;4.394;2024-01-27T07:44:44;4.00;99.90
23597;DHT22;40226;50.874;4.394;2024-01-27T07:47:10;4.00;99.90
23597;DHT22;40226;50.874;4.394;2024-01-27T07:49:35;4.00;99.90
23597;DHT22;40226;50.874;4.394;2024-01-27T07:52:01;3.90;99.90
23597;DHT22;40226;50.874;4.394;2024-01-27T07:54:27;3.90;99.90
23597;DHT22;40226;50.874;4.394;2024-01-27T07:56:52;4.00;99.90
23597;DHT22;40226;50.874;4.394;2024-01-27T07:59:18;4.00;99.90
23597;DHT22;40226;50.874;4.394;2024-01-27T08:01:44;4.00;99.90
23597;DHT22;40226;50.874;4.394;2024-01-27T08:04:09;4.00;99.90
23597;DHT22;40226;50.874;4.394;2024-01-27T08:06:46;4.10;99.90
23597;DHT22;40226;50.874;4.394;2024-01-27T08:09:11;4.00;99.90
23597;DHT22;40226;50.874;4.394;2024-01-27T08:11:37;4.10;99.90
23597;DHT22;40226;50.874;4.394;2024-01-27T08:14:03;4.10;99.90
23597;DHT22;40226;50.874;4.394;2024-01-27T08:16:28;4.20;99.90
23597;DHT22;40226;50.874;4.394;2024-01-27T08:18:54;4.20;99.90
23597;DHT22;40226;50.874;4.394;2024-01-27T08:21:19;4.20;99.90
23597;DHT22;40226;50.874;4.394;2024-01-27T08:23:45;4.20;99.90
23597;DHT22;40226;50.874;4.394;2024-01-27T08:26:10;4.20;99.90
23597;DHT22;40226;50.874;4.394;2024-01-27T08:28:36;4.30;99.90
23597;DHT22;40226;50.874;4.394;2024-01-27T08:31:02;4.40;99.90
23597;DHT22;40226;50.874;4.394;2024-01-27T08:33:27;4.40;99.90
23597;DHT22;40226;50.874;4.394;2024-01-27T08:35:53;4.50;99.90
23597;DHT22;40226;50.874;4.394;2024-01-27T08:38:19;4.50;99.90
23597;DHT22;40226;50.874;4.394;2024-01-27T08:40:45;4.50;99.90
23597;DHT22;40226;50.874;4.394;2024-01-27T08:43:10;4.50;99.90
23597;DHT22;40226;50.874;4.394;2024-01-27T08:45:37;4.60;99.90
23597;DHT22;40226;50.874;4.394;2024-01-27T08:48:04;4.70;99.90
23597;DHT22;40226;50.874;4.394;2024-01-27T08:50:29;4.70;99.90
23597;DHT22;40226;50.874;4.394;2024-01-27T08:52:55;4.70;99.90
23597;DHT22;40226;50.874;4.394;2024-01-27T08:55:20;4.80;99.90
23597;DHT22;40226;50.874;4.394;2024-01-27T08:57:49;4.80;99.90
23597;DHT22;40226;50.874;4.394;2024-01-27T09:00:15;4.80;99.90
23597;DHT22;40226;50.874;4.394;2024-01-27T09:02:42;5.00;99.90
23597;DHT22;40226;50.874;4.394;2024-01-27T09:05:08;5.00;99.90
23597;DHT22;40226;50.874;4.394;2024-01-27T09:07:34;4.90;99.90
23597;DHT22;40226;50.874;4.394;2024-01-27T09:10:00;5.00;99.90
23597;DHT22;40226;50.874;4.394;2024-01-27T09:12:25;5.00;99.90
23597;DHT22;40226;50.874;4.394;2024-01-27T09:14:51;5.10;99.90
23597;DHT22;40226;50.874;4.394;2024-01-27T09:17:16;5.20;99.90
23597;DHT22;40226;50.874;4.394;2024-01-27T09:19:42;5.20;99.90
23597;DHT22;40226;50.874;4.394;2024-01-27T09:22:08;5.30;99.90
23597;DHT22;40226;50.874;4.394;2024-01-27T09:24:33;5.30;99.90
23597;DHT22;40226;50.874;4.394;2024-01-27T09:26:59;5.40;99.90
23597;DHT22;40226;50.874;4.394;2024-01-27T09:29:25;5.50;99.90
23597;DHT22;40226;50.874;4.394;2024-01-27T09:31:50;5.50;99.90
23597;DHT22;40226;50.874;4.394;2024-01-27T09:34:16;5.50;99.90
23597;DHT22;40226;50.874;4.394;2024-01-27T09:36:42;5.60;99.90
23597;DHT22;40226;50.874;4.394;2024-01-27T09:39:07;5.60;99.90
23597;DHT22;40226;50.874;4.394;2024-01-27T09:41:34;5.60;99.90
23597;DHT22;40226;50.874;4.394;2024-01-27T09:44:03;5.70;99.90
23597;DHT22;40226;50.874;4.394;2024-01-27T09:46:29;5.70;99.90
23597;DHT22;40226;50.874;4.394;2024-01-27T09:48:56;5.80;99.90
23597;DHT22;40226;50.874;4.394;2024-01-27T09:51:22;5.70;99.90
23597;DHT22;40226;50.874;4.394;2024-01-27T09:53:51;5.80;99.90
23597;DHT22;40226;50.874;4.394;2024-01-27T09:56:17;5.90;99.90
23597;DHT22;40226;50.874;4.394;2024-01-27T09:58:44;6.00;99.90
23597;DHT22;40226;50.874;4.394;2024-01-27T10:01:11;6.10;99.90
23597;DHT22;40226;50.874;4.394;2024-01-27T10:03:40;6.10;99.90
23597;DHT22;40226;50.874;4.394;2024-01-27T10:06:10;6.20;99.90
23597;DHT22;40226;50.874;4.394;2024-01-27T10:08:36;6.40;99.90
23597;DHT22;40226;50.874;4.394;2024-01-27T10:11:07;6.40;99.90
23597;DHT22;40226;50.874;4.394;2024-01-27T10:13:34;6.30;99.90
23597;DHT22;40226;50.874;4.394;2024-01-27T10:16:02;6.20;99.90
23597;DHT22;40226;50.874;4.394;2024-01-27T10:18:28;6.30;99.90
23597;DHT22;40226;50.874;4.394;2024-01-27T10:20:54;6.30;99.90
23597;DHT22;40226;50.874;4.394;2024-01-27T10:23:19;6.50;99.90
23597;DHT22;40226;50.874;4.394;2024-01-27T10:25:45;6.80;99.90
23597;DHT22;40226;50.874;4.394;2024-01-27T10:28:10;7.10;99.90
23597;DHT22;40226;50.874;4.394;2024-01-27T10:30:36;7.10;99.90
23597;DHT22;40226;50.874;4.394;2024-01-27T10:33:02;7.00;99.90
23597;DHT22;40226;50.874;4.394;2024-01-27T10:35:29;7.00;99.90
23597;DHT22;40226;50.874;4.394;2024-01-27T10:37:55;6.90;99.90
23597;DHT22;40226;50.874;4.394;2024-01-27T10:40:21;7.10;99.90
23597;DHT22;40226;50.874;4.394;2024-01-27T10:43:07;7.00;99.90
23597;DHT22;40226;50.874;4.394;2024-01-27T10:45:41;7.00;99.90
23597;DHT22;40226;50.874;4.394;2024-01-27T10:48:08;6.90;99.90
23597;DHT22;40226;50.874;4.394;2024-01-27T10:50:38;6.90;99.90
23597;DHT22;40226;50.874;4.394;2024-01-27T10:53:08;6.80;99.90
23597;DHT22;40226;50.874;4.394;2024-01-27T10:55:34;6.90;99.90
23597;DHT22;40226;50.874;4.394;2024-01-27T10:58:03;7.00;99.90
23597;DHT22;40226;50.874;4.394;2024-01-27T11:00:30;7.20;99.90
23597;DHT22;40226;50.874;4.394;2024-01-27T11:02:59;7.40;99.90
23597;DHT22;40226;50.874;4.394;2024-01-27T11:05:25;7.50;99.90
23597;DHT22;40226;50.874;4.394;2024-01-27T11:07:53;7.50;99.90
23597;DHT22;40226;50.874;4.394;2024-01-27T11:10:18;7.70;99.90
23597;DHT22;40226;50.874;4.394;2024-01-27T11:12:45;7.60;99.90
23597;DHT22;40226;50.874;4.394;2024-01-27T11:15:12;7.70;99.90
23597;DHT22;40226;50.874;4.394;2024-01-27T11:17:42;7.60;99.90
23597;DHT22;40226;50.874;4.394;2024-01-27T11:20:08;7.80;99.90
23597;DHT22;40226;50.874;4.394;2024-01-27T11:22:36;8.10;99.90
23597;DHT22;40226;50.874;4.394;2024-01-27T11:27:41;8.30;99.90
23597;DHT22;40226;50.874;4.394;2024-01-27T11:30:27;8.30;99.90
23597;DHT22;40226;50.874;4.394;2024-01-27T11:32:55;8.10;99.90
23597;DHT22;40226;50.874;4.394;2024-01-27T11:35:21;8.10;99.90
23597;DHT22;40226;50.874;4.394;2024-01-27T11:37:47;8.30;99.90
23597;DHT22;40226;50.874;4.394;2024-01-27T11:40:14;8.60;99.90
23597;DHT22;40226;50.874;4.394;2024-01-27T11:42:41;8.60;99.90
23597;DHT22;40226;50.874;4.394;2024-01-27T11:45:08;8.60;99.90
23597;DHT22;40226;50.874;4.394;2024-01-27T11:47:35;8.50;99.90
23597;DHT22;40226;50.874;4.394;2024-01-27T11:50:00;8.40;99.90
23597;DHT22;40226;50.874;4.394;2024-01-27T11:52:28;8.20;99.90
23597;DHT22;40226;50.874;4.394;2024-01-27T11:54:58;8.60;99.90
23597;DHT22;40226;50.874;4.394;2024-01-27T11:57:24;8.70;99.90
23597;DHT22;40226;50.874;4.394;2024-01-27T11:59:51;8.70;99.90
23597;DHT22;40226;50.874;4.394;2024-01-27T12:02:18;9.00;99.90
23597;DHT22;40226;50.874;4.394;2024-01-27T12:04:44;8.80;99.90
23597;DHT22;40226;50.874;4.394;2024-01-27T12:07:09;8.80;99.90
23597;DHT22;40226;50.874;4.394;2024-01-27T12:09:36;8.60;99.90
23597;DHT22;40226;50.874;4.394;2024-01-27T12:12:03;8.70;99.90
23597;DHT22;40226;50.874;4.394;2024-01-27T12:14:45;8.70;99.90
23597;DHT22;40226;50.874;4.394;2024-01-27T12:17:11;8.90;99.90
23597;DHT22;40226;50.874;4.394;2024-01-27T12:19:37;9.10;99.90
23597;DHT22;40226;50.874;4.394;2024-01-27T12:22:04;9.60;99.90
23597;DHT22;40226;50.874;4.394;2024-01-27T12:24:30;9.90;99.90
23597;DHT22;40226;50.874;4.394;2024-01-27T12:26:57;10.00;99.90
23597;DHT22;40226;50.874;4.394;2024-01-27T12:29:24;10.00;99.90
23597;DHT22;40226;50.874;4.394;2024-01-27T12:31:50;9.70;99.90
23597;DHT22;40226;50.874;4.394;2024-01-27T12:34:16;9.20;99.90
23597;DHT22;40226;50.874;4.394;2024-01-27T12:36:42;9.10;99.90
23597;DHT22;40226;50.874;4.394;2024-01-27T12:39:09;9.00;99.90
23597;DHT22;40226;50.874;4.394;2024-01-27T12:41:35;9.20;99.90
23597;DHT22;40226;50.874;4.394;2024-01-27T12:44:01;9.30;99.90
23597;DHT22;40226;50.874;4.394;2024-01-27T12:46:27;9.50;99.90
23597;DHT22;40226;50.874;4.394;2024-01-27T12:48:53;9.60;99.90
23597;DHT22;40226;50.874;4.394;2024-01-27T12:51:19;9.60;99.90
23597;DHT22;40226;50.874;4.394;2024-01-27T12:53:45;9.80;99.90
23597;DHT22;40226;50.874;4.394;2024-01-27T12:56:12;9.90;99.90
23597;DHT22;40226;50.874;4.394;2024-01-27T12:58:38;9.90;99.90
23597;DHT22;40226;50.874;4.394;2024-01-27T13:01:04;10.00;99.90
23597;DHT22;40226;50.874;4.394;2024-01-27T13:03:30;10.20;99.90
23597;DHT22;40226;50.874;4.394;2024-01-27T13:05:56;10.60;99.90
23597;DHT22;40226;50.874;4.394;2024-01-27T13:08:22;11.10;99.90
23597;DHT22;40226;50.874;4.394;2024-01-27T13:10:48;11.00;99.90
23597;DHT22;40226;50.874;4.394;2024-01-27T13:13:14;11.10;99.90
23597;DHT22;40226;50.874;4.394;2024-01-27T13:15:40;10.90;99.90
23597;DHT22;40226;50.874;4.394;2024-01-27T13:18:05;10.80;99.90
23597;DHT22;40226;50.874;4.394;2024-01-27T13:20:31;10.70;99.90
23597;DHT22;40226;50.874;4.394;2024-01-27T13:22:58;11.00;99.90
23597;DHT22;40226;50.874;4.394;2024-01-27T13:25:23;11.30;99.90
23597;DHT22;40226;50.874;4.394;2024-01-27T13:27:49;11.60;99.90
23597;DHT22;40226;50.874;4.394;2024-01-27T13:30:14;11.50;99.90
23597;DHT22;40226;50.874;4.394;2024-01-27T13:32:41;11.60;99.90
23597;DHT22;40226;50.874;4.394;2024-01-27T13:35:07;11.50;99.90
23597;DHT22;40226;50.874;4.394;2024-01-27T13:37:33;10.90;99.90
23597;DHT22;40226;50.874;4.394;2024-01-27T13:40:00;10.60;99.90
23597;DHT22;40226;50.874;4.394;2024-01-27T13:42:26;10.40;99.90
23597;DHT22;40226;50.874;4.394;2024-01-27T13:44:51;10.40;99.90
23597;DHT22;40226;50.874;4.394;2024-01-27T13:47:17;10.30;99.90
23597;DHT22;40226;50.874;4.394;2024-01-27T13:49:43;10.00;99.90
23597;DHT22;40226;50.874;4.394;2024-01-27T13:52:09;10.00;99.90
23597;DHT22;40226;50.874;4.394;2024-01-27T13:54:34;10.40;99.90
23597;DHT22;40226;50.874;4.394;2024-01-27T13:57:01;10.50;99.90
23597;DHT22;40226;50.874;4.394;2024-01-27T13:59:27;10.40;99.90
23597;DHT22;40226;50.874;4.394;2024-01-27T14:01:53;10.10;99.90
23597;DHT22;40226;50.874;4.394;2024-01-27T14:04:19;10.20;99.90
23597;DHT22;40226;50.874;4.394;2024-01-27T14:06:45;11.00;99.90
23597;DHT22;40226;50.874;4.394;2024-01-27T14:09:11;11.20;99.90
23597;DHT22;40226;50.874;4.394;2024-01-27T14:11:38;11.10;99.90
23597;DHT22;40226;50.874;4.394;2024-01-27T14:14:04;11.10;99.90
23597;DHT22;40226;50.874;4.394;2024-01-27T14:16:30;10.70;99.90
23597;DHT22;40226;50.874;4.394;2024-01-27T14:18:57;10.60;99.90
23597;DHT22;40226;50.874;4.394;2024-01-27T14:21:22;10.20;99.90
23597;DHT22;40226;50.874;4.394;2024-01-27T14:23:49;9.90;99.90
23597;DHT22;40226;50.874;4.394;2024-01-27T14:26:15;9.90;99.90
23597;DHT22;40226;50.874;4.394;2024-01-27T14:28:41;9.70;99.90
23597;DHT22;40226;50.874;4.394;2024-01-27T14:31:07;9.70;99.90
23597;DHT22;40226;50.874;4.394;2024-01-27T14:33:33;9.50;99.90
23597;DHT22;40226;50.874;4.394;2024-01-27T14:35:59;9.60;99.90
23597;DHT22;40226;50.874;4.394;2024-01-27T14:38:25;10.00;99.90
23597;DHT22;40226;50.874;4.394;2024-01-27T14:40:51;9.80;99.90
23597;DHT22;40226;50.874;4.394;2024-01-27T14:43:16;9.40;99.90
23597;DHT22;40226;50.874;4.394;2024-01-27T14:45:46;9.30;99.90
23597;DHT22;40226;50.874;4.394;2024-01-27T14:48:12;9.60;99.90
23597;DHT22;40226;50.874;4.394;2024-01-27T14:50:38;9.50;99.90
23597;DHT22;40226;50.874;4.394;2024-01-27T14:53:03;9.50;99.90
23597;DHT22;40226;50.874;4.394;2024-01-27T14:55:30;9.40;99.90
23597;DHT22;40226;50.874;4.394;2024-01-27T14:57:56;9.30;99.90
23597;DHT22;40226;50.874;4.394;2024-01-27T15:00:22;9.30;99.90
23597;DHT22;40226;50.874;4.394;2024-01-27T15:02:47;9.10;99.90
23597;DHT22;40226;50.874;4.394;2024-01-27T15:05:13;9.00;99.90
23597;DHT22;40226;50.874;4.394;2024-01-27T15:07:39;8.90;99.90
23597;DHT22;40226;50.874;4.394;2024-01-27T15:10:06;8.90;99.90
23597;DHT22;40226;50.874;4.394;2024-01-27T15:12:32;8.80;99.90
23597;DHT22;40226;50.874;4.394;2024-01-27T15:14:57;8.90;99.90
23597;DHT22;40226;50.874;4.394;2024-01-27T15:17:23;9.00;99.90
23597;DHT22;40226;50.874;4.394;2024-01-27T15:19:49;9.10;99.90
23597;DHT22;40226;50.874;4.394;2024-01-27T15:22:15;9.30;99.90
23597;DHT22;40226;50.874;4.394;2024-01-27T15:24:41;9.20;99.90
23597;DHT22;40226;50.874;4.394;2024-01-27T15:27:07;9.10;99.90
23597;DHT22;40226;50.874;4.394;2024-01-27T15:29:34;9.20;99.90
23597;DHT22;40226;50.874;4.394;2024-01-27T15:31:59;9.30;99.90
23597;DHT22;40226;50.874;4.394;2024-01-27T15:34:25;9.20;99.90
23597;DHT22;40226;50.874;4.394;2024-01-27T15:36:50;9.20;99.90
23597;DHT22;40226;50.874;4.394;2024-01-27T15:39:16;9.40;99.90